JST778 YMML-YPAD
Flight info
| Callsign | JST778 |
|---|---|
| Flight time | 0h 59m |
| Altitude | 30000 |
| Route | PEDNI1/27 PEDNI H345 AD |
| Aircraft | A320/M-SDE3FGHIRWY/LB1 |
Departure
| Time | 2026-05-05 08:34 |
|---|---|
| Airport | Melbourne Airport (YMML) |
Arrival
| Time | 2026-05-05 09:33 |
|---|---|
| Airport | Adelaide International Airport (YPAD) |
| Time | Latitude | Longitude | Altitude | Speed | Heading |
|---|---|---|---|---|---|
| 2026-05-05 07:35 | -37.67573 | 144.84657 | 378 ft | 0 kts | 81° |
| 2026-05-05 08:18 | -37.67574 | 144.84646 | 377 ft | 4 kts | 82° |
| 2026-05-05 08:19 | -37.67578 | 144.84612 | 376 ft | 4 kts | 80° |
| 2026-05-05 08:19 | -37.67584 | 144.84580 | 376 ft | 4 kts | 63° |
| 2026-05-05 08:19 | -37.67598 | 144.84560 | 375 ft | 4 kts | 355° |
| 2026-05-05 08:19 | -37.67584 | 144.84557 | 376 ft | 4 kts | 352° |
| 2026-05-05 08:20 | -37.67560 | 144.84552 | 376 ft | 1 kts | 352° |
| 2026-05-05 08:20 | -37.67559 | 144.84552 | 376 ft | 1 kts | 352° |
| 2026-05-05 08:24 | -37.67538 | 144.84548 | 377 ft | 6 kts | 352° |
| 2026-05-05 08:24 | -37.67495 | 144.84534 | 378 ft | 7 kts | 332° |
| 2026-05-05 08:24 | -37.67467 | 144.84484 | 378 ft | 8 kts | 282° |
| 2026-05-05 08:24 | -37.67476 | 144.84399 | 377 ft | 12 kts | 262° |
| 2026-05-05 08:25 | -37.67437 | 144.84313 | 377 ft | 13 kts | 348° |
| 2026-05-05 08:25 | -37.67345 | 144.84297 | 379 ft | 14 kts | 352° |
| 2026-05-05 08:25 | -37.67249 | 144.84278 | 381 ft | 14 kts | 351° |
| 2026-05-05 08:25 | -37.67148 | 144.84259 | 383 ft | 15 kts | 351° |
| 2026-05-05 08:26 | -37.67042 | 144.84238 | 385 ft | 16 kts | 351° |
| 2026-05-05 08:26 | -37.66932 | 144.84219 | 387 ft | 16 kts | 352° |
| 2026-05-05 08:26 | -37.66823 | 144.84200 | 391 ft | 16 kts | 352° |
| 2026-05-05 08:26 | -37.66727 | 144.84182 | 395 ft | 5 kts | 351° |
| 2026-05-05 08:27 | -37.66724 | 144.84181 | 393 ft | 0 kts | 351° |
| 2026-05-05 08:28 | -37.66718 | 144.84182 | 393 ft | 3 kts | 5° |
| 2026-05-05 08:28 | -37.66703 | 144.84203 | 394 ft | 3 kts | 62° |
| 2026-05-05 08:28 | -37.66696 | 144.84245 | 394 ft | 6 kts | 81° |
| 2026-05-05 08:29 | -37.66690 | 144.84300 | 394 ft | 7 kts | 81° |
| 2026-05-05 08:29 | -37.66683 | 144.84366 | 396 ft | 8 kts | 83° |
| 2026-05-05 08:29 | -37.66674 | 144.84441 | 396 ft | 9 kts | 80° |
| 2026-05-05 08:30 | -37.66653 | 144.84612 | 400 ft | 10 kts | 82° |
| 2026-05-05 08:30 | -37.66642 | 144.84705 | 399 ft | 11 kts | 81° |
| 2026-05-05 08:30 | -37.66608 | 144.84787 | 402 ft | 11 kts | 33° |
| 2026-05-05 08:30 | -37.66540 | 144.84797 | 406 ft | 10 kts | 342° |
| 2026-05-05 08:31 | -37.66476 | 144.84776 | 408 ft | 9 kts | 352° |
| 2026-05-05 08:31 | -37.66412 | 144.84779 | 407 ft | 9 kts | 4° |
| 2026-05-05 08:31 | -37.66348 | 144.84785 | 412 ft | 9 kts | 4° |
| 2026-05-05 08:31 | -37.66280 | 144.84792 | 413 ft | 10 kts | 5° |
| 2026-05-05 08:32 | -37.66222 | 144.84778 | 413 ft | 7 kts | 292° |
| 2026-05-05 08:32 | -37.66222 | 144.84749 | 413 ft | 0 kts | 271° |
| 2026-05-05 08:33 | -37.66212 | 144.84544 | 412 ft | 59 kts | 275° |
| 2026-05-05 08:33 | -37.66164 | 144.83752 | 414 ft | 118 kts | 274° |
| 2026-05-05 08:33 | -37.66089 | 144.82554 | 581 ft | 144 kts | 276° |
| 2026-05-05 08:34 | -37.66015 | 144.81313 | 1173 ft | 143 kts | 275° |
| 2026-05-05 08:34 | -37.65943 | 144.80041 | 1619 ft | 152 kts | 275° |
| 2026-05-05 08:34 | -37.65859 | 144.78607 | 1772 ft | 176 kts | 275° |
| 2026-05-05 08:34 | -37.65761 | 144.76965 | 2017 ft | 199 kts | 275° |
| 2026-05-05 08:35 | -37.65654 | 144.75132 | 2272 ft | 225 kts | 275° |
| 2026-05-05 08:35 | -37.65532 | 144.73034 | 2744 ft | 246 kts | 274° |
| 2026-05-05 08:35 | -37.65407 | 144.70877 | 3563 ft | 252 kts | 273° |
| 2026-05-05 08:35 | -37.65278 | 144.68663 | 4481 ft | 255 kts | 273° |
| 2026-05-05 08:36 | -37.65138 | 144.66427 | 5354 ft | 258 kts | 276° |
| 2026-05-05 08:36 | -37.64682 | 144.64225 | 6207 ft | 262 kts | 291° |
| 2026-05-05 08:36 | -37.63986 | 144.62082 | 7074 ft | 265 kts | 291° |
| 2026-05-05 08:36 | -37.63284 | 144.59909 | 7914 ft | 269 kts | 290° |
| 2026-05-05 08:37 | -37.62578 | 144.57712 | 8721 ft | 273 kts | 290° |
| 2026-05-05 08:37 | -37.61862 | 144.55479 | 9502 ft | 277 kts | 289° |
| 2026-05-05 08:37 | -37.61133 | 144.53212 | 10252 ft | 281 kts | 289° |
| 2026-05-05 08:37 | -37.60375 | 144.50853 | 10649 ft | 300 kts | 289° |
| 2026-05-05 08:38 | -37.59565 | 144.48326 | 10889 ft | 321 kts | 289° |
| 2026-05-05 08:38 | -37.58710 | 144.45671 | 11443 ft | 329 kts | 289° |
| 2026-05-05 08:38 | -37.57840 | 144.42980 | 12116 ft | 334 kts | 289° |
| 2026-05-05 08:38 | -37.56958 | 144.40263 | 12797 ft | 337 kts | 289° |
| 2026-05-05 08:39 | -37.56067 | 144.37515 | 13439 ft | 341 kts | 289° |
| 2026-05-05 08:39 | -37.55168 | 144.34737 | 14057 ft | 344 kts | 289° |
| 2026-05-05 08:39 | -37.54257 | 144.31929 | 14671 ft | 348 kts | 289° |
| 2026-05-05 08:39 | -37.53335 | 144.29086 | 15270 ft | 352 kts | 289° |
| 2026-05-05 08:40 | -37.52415 | 144.26254 | 15847 ft | 356 kts | 289° |
| 2026-05-05 08:40 | -37.51472 | 144.23356 | 16408 ft | 359 kts | 289° |
| 2026-05-05 08:40 | -37.50519 | 144.20430 | 16947 ft | 363 kts | 289° |
| 2026-05-05 08:40 | -37.49546 | 144.17443 | 17513 ft | 366 kts | 289° |
| 2026-05-05 08:41 | -37.48585 | 144.14495 | 18041 ft | 370 kts | 289° |
| 2026-05-05 08:41 | -37.47607 | 144.11493 | 18562 ft | 373 kts | 289° |
| 2026-05-05 08:41 | -37.46619 | 144.08457 | 19089 ft | 376 kts | 289° |
| 2026-05-05 08:41 | -37.45621 | 144.05396 | 19625 ft | 379 kts | 289° |
| 2026-05-05 08:42 | -37.44611 | 144.02312 | 20147 ft | 383 kts | 289° |
| 2026-05-05 08:42 | -37.43586 | 143.99197 | 20667 ft | 386 kts | 289° |
| 2026-05-05 08:42 | -37.42557 | 143.96073 | 21150 ft | 388 kts | 289° |
| 2026-05-05 08:42 | -37.41521 | 143.92919 | 21619 ft | 391 kts | 289° |
| 2026-05-05 08:43 | -37.40476 | 143.89741 | 22048 ft | 394 kts | 289° |
| 2026-05-05 08:43 | -37.39421 | 143.86543 | 22497 ft | 397 kts | 289° |
| 2026-05-05 08:43 | -37.38358 | 143.83324 | 22937 ft | 400 kts | 289° |
| 2026-05-05 08:43 | -37.37287 | 143.80084 | 23366 ft | 403 kts | 289° |
| 2026-05-05 08:44 | -37.36209 | 143.76822 | 23782 ft | 405 kts | 289° |
| 2026-05-05 08:44 | -37.35126 | 143.73545 | 24198 ft | 408 kts | 289° |
| 2026-05-05 08:44 | -37.34033 | 143.70242 | 24607 ft | 410 kts | 289° |
| 2026-05-05 08:44 | -37.32932 | 143.66919 | 25020 ft | 413 kts | 289° |
| 2026-05-05 08:45 | -37.31828 | 143.63581 | 25428 ft | 415 kts | 289° |
| 2026-05-05 08:45 | -37.30720 | 143.60228 | 25830 ft | 417 kts | 289° |
| 2026-05-05 08:45 | -37.29605 | 143.56860 | 26213 ft | 419 kts | 290° |
| 2026-05-05 08:45 | -37.28481 | 143.53477 | 26585 ft | 421 kts | 290° |
| 2026-05-05 08:46 | -37.27347 | 143.50081 | 26965 ft | 423 kts | 290° |
| 2026-05-05 08:46 | -37.26204 | 143.46672 | 27318 ft | 425 kts | 290° |
| 2026-05-05 08:46 | -37.25053 | 143.43250 | 27672 ft | 426 kts | 290° |
| 2026-05-05 08:46 | -37.23900 | 143.39821 | 28033 ft | 428 kts | 290° |
| 2026-05-05 08:47 | -37.22742 | 143.36363 | 28385 ft | 430 kts | 290° |
| 2026-05-05 08:47 | -37.21579 | 143.32897 | 28736 ft | 432 kts | 290° |
| 2026-05-05 08:47 | -37.20429 | 143.29463 | 29073 ft | 434 kts | 290° |
| 2026-05-05 08:47 | -37.19246 | 143.25926 | 29419 ft | 435 kts | 290° |
| 2026-05-05 08:48 | -37.18135 | 143.22442 | 29753 ft | 437 kts | 289° |
| 2026-05-05 08:48 | -37.17052 | 143.18878 | 30080 ft | 438 kts | 288° |
| 2026-05-05 08:48 | -37.15991 | 143.15294 | 30222 ft | 437 kts | 288° |
| 2026-05-05 08:48 | -37.14951 | 143.11777 | 30246 ft | 426 kts | 288° |
| 2026-05-05 08:49 | -37.13904 | 143.08264 | 30245 ft | 434 kts | 288° |
| 2026-05-05 08:49 | -37.11736 | 143.01143 | 30251 ft | 439 kts | 289° |
| 2026-05-05 08:50 | -37.09531 | 142.94016 | 30247 ft | 439 kts | 289° |
| 2026-05-05 08:50 | -37.07329 | 142.86880 | 30250 ft | 439 kts | 289° |
| 2026-05-05 08:51 | -37.05131 | 142.79738 | 30243 ft | 439 kts | 289° |
| 2026-05-05 08:51 | -37.02927 | 142.72609 | 30245 ft | 439 kts | 289° |
| 2026-05-05 08:52 | -37.00714 | 142.65486 | 30242 ft | 439 kts | 289° |
| 2026-05-05 08:52 | -36.98505 | 142.58362 | 30245 ft | 439 kts | 289° |
| 2026-05-05 08:53 | -36.96287 | 142.51239 | 30239 ft | 440 kts | 289° |
| 2026-05-05 08:53 | -36.94056 | 142.44123 | 30241 ft | 440 kts | 289° |
| 2026-05-05 08:54 | -36.91822 | 142.37014 | 30241 ft | 440 kts | 289° |
| 2026-05-05 08:54 | -36.89600 | 142.29936 | 30239 ft | 440 kts | 289° |
| 2026-05-05 08:55 | -36.87357 | 142.22821 | 30239 ft | 441 kts | 290° |
| 2026-05-05 08:55 | -36.85111 | 142.15692 | 30241 ft | 441 kts | 290° |
| 2026-05-05 08:56 | -36.82862 | 142.08583 | 30242 ft | 441 kts | 290° |
| 2026-05-05 08:56 | -36.80606 | 142.01460 | 30245 ft | 441 kts | 290° |
| 2026-05-05 08:57 | -36.78346 | 141.94336 | 30240 ft | 441 kts | 290° |
| 2026-05-05 08:57 | -36.76070 | 141.87221 | 30251 ft | 441 kts | 290° |
| 2026-05-05 08:58 | -36.73789 | 141.80115 | 30254 ft | 441 kts | 290° |
| 2026-05-05 08:58 | -36.71514 | 141.73002 | 30248 ft | 442 kts | 290° |
| 2026-05-05 08:59 | -36.69232 | 141.65892 | 30256 ft | 442 kts | 290° |
| 2026-05-05 08:59 | -36.66948 | 141.58789 | 30256 ft | 442 kts | 290° |
| 2026-05-05 09:00 | -36.64671 | 141.51723 | 30249 ft | 442 kts | 290° |
| 2026-05-05 09:00 | -36.62373 | 141.44620 | 30265 ft | 441 kts | 290° |
| 2026-05-05 09:01 | -36.60071 | 141.37536 | 30252 ft | 441 kts | 290° |
| 2026-05-05 09:01 | -36.57770 | 141.30455 | 30263 ft | 441 kts | 290° |
| 2026-05-05 09:02 | -36.55465 | 141.23378 | 30256 ft | 441 kts | 290° |
| 2026-05-05 09:02 | -36.53166 | 141.16351 | 30265 ft | 441 kts | 290° |
| 2026-05-05 09:03 | -36.50854 | 141.09300 | 30255 ft | 441 kts | 290° |
| 2026-05-05 09:03 | -36.48545 | 141.02249 | 30272 ft | 440 kts | 291° |
| 2026-05-05 09:04 | -36.46616 | 140.96369 | 30278 ft | 438 kts | 291° |
| 2026-05-05 09:04 | -36.44307 | 140.89374 | 30279 ft | 437 kts | 291° |
| 2026-05-05 09:05 | -36.41628 | 140.81282 | 30279 ft | 436 kts | 291° |
| 2026-05-05 09:05 | -36.39669 | 140.75519 | 30279 ft | 436 kts | 296° |
| 2026-05-05 09:06 | -36.36210 | 140.69349 | 30279 ft | 437 kts | 307° |
| 2026-05-05 09:06 | -36.32462 | 140.63415 | 30275 ft | 436 kts | 307° |
| 2026-05-05 09:07 | -36.28724 | 140.57487 | 30270 ft | 436 kts | 307° |
| 2026-05-05 09:07 | -36.24971 | 140.51575 | 30268 ft | 436 kts | 307° |
| 2026-05-05 09:08 | -36.21211 | 140.45686 | 30268 ft | 436 kts | 307° |
| 2026-05-05 09:08 | -36.17444 | 140.39785 | 30269 ft | 436 kts | 307° |
| 2026-05-05 09:09 | -36.13691 | 140.33895 | 30268 ft | 436 kts | 307° |
| 2026-05-05 09:09 | -36.09929 | 140.28002 | 30270 ft | 436 kts | 308° |
| 2026-05-05 09:10 | -36.06160 | 140.22124 | 30271 ft | 436 kts | 308° |
| 2026-05-05 09:10 | -36.02417 | 140.16284 | 30270 ft | 436 kts | 308° |
| 2026-05-05 09:11 | -35.98653 | 140.10418 | 30272 ft | 436 kts | 308° |
| 2026-05-05 09:11 | -35.94878 | 140.04550 | 30273 ft | 436 kts | 308° |
| 2026-05-05 09:12 | -35.91097 | 139.98680 | 30280 ft | 437 kts | 308° |
| 2026-05-05 09:12 | -35.87315 | 139.92817 | 30281 ft | 437 kts | 308° |
| 2026-05-05 09:13 | -35.83525 | 139.86966 | 30281 ft | 436 kts | 308° |
| 2026-05-05 09:13 | -35.79732 | 139.81119 | 29586 ft | 440 kts | 308° |
| 2026-05-05 09:13 | -35.77817 | 139.78171 | 28885 ft | 439 kts | 308° |
| 2026-05-05 09:14 | -35.75924 | 139.75257 | 28350 ft | 433 kts | 308° |
| 2026-05-05 09:14 | -35.74053 | 139.72381 | 27792 ft | 429 kts | 308° |
| 2026-05-05 09:14 | -35.72191 | 139.69524 | 27247 ft | 425 kts | 308° |
| 2026-05-05 09:14 | -35.70351 | 139.66701 | 26702 ft | 421 kts | 308° |
| 2026-05-05 09:15 | -35.68534 | 139.63914 | 26173 ft | 416 kts | 308° |
| 2026-05-05 09:15 | -35.66732 | 139.61150 | 25660 ft | 412 kts | 308° |
| 2026-05-05 09:15 | -35.64950 | 139.58415 | 25157 ft | 408 kts | 308° |
| 2026-05-05 09:15 | -35.63183 | 139.55711 | 24676 ft | 403 kts | 308° |
| 2026-05-05 09:16 | -35.61435 | 139.53034 | 24196 ft | 400 kts | 308° |
| 2026-05-05 09:16 | -35.59702 | 139.50381 | 23748 ft | 396 kts | 309° |
| 2026-05-05 09:16 | -35.57981 | 139.47749 | 23297 ft | 394 kts | 309° |
| 2026-05-05 09:16 | -35.56269 | 139.45134 | 22846 ft | 391 kts | 309° |
| 2026-05-05 09:17 | -35.54571 | 139.42542 | 22396 ft | 388 kts | 309° |
| 2026-05-05 09:17 | -35.52885 | 139.39975 | 21936 ft | 385 kts | 309° |
| 2026-05-05 09:17 | -35.51211 | 139.37426 | 21473 ft | 382 kts | 309° |
| 2026-05-05 09:17 | -35.49551 | 139.34897 | 21021 ft | 379 kts | 309° |
| 2026-05-05 09:18 | -35.47901 | 139.32385 | 20571 ft | 377 kts | 309° |
| 2026-05-05 09:18 | -35.46285 | 139.29927 | 20088 ft | 374 kts | 309° |
| 2026-05-05 09:18 | -35.44658 | 139.27454 | 19594 ft | 371 kts | 309° |
| 2026-05-05 09:18 | -35.42946 | 139.25107 | 19109 ft | 368 kts | 317° |
| 2026-05-05 09:19 | -35.40911 | 139.23228 | 18601 ft | 366 kts | 329° |
| 2026-05-05 09:19 | -35.38621 | 139.21905 | 18102 ft | 363 kts | 339° |
| 2026-05-05 09:19 | -35.36265 | 139.20832 | 17603 ft | 361 kts | 339° |
| 2026-05-05 09:19 | -35.33914 | 139.19750 | 16964 ft | 361 kts | 339° |
| 2026-05-05 09:20 | -35.31545 | 139.18652 | 16268 ft | 365 kts | 339° |
| 2026-05-05 09:20 | -35.29173 | 139.17550 | 15769 ft | 362 kts | 338° |
| 2026-05-05 09:20 | -35.26828 | 139.16458 | 15267 ft | 359 kts | 338° |
| 2026-05-05 09:20 | -35.24509 | 139.15377 | 14770 ft | 356 kts | 338° |
| 2026-05-05 09:21 | -35.22200 | 139.14301 | 14278 ft | 353 kts | 338° |
| 2026-05-05 09:21 | -35.19914 | 139.13238 | 13773 ft | 350 kts | 338° |
| 2026-05-05 09:21 | -35.17643 | 139.12190 | 13278 ft | 348 kts | 338° |
| 2026-05-05 09:21 | -35.15387 | 139.11153 | 12762 ft | 346 kts | 338° |
| 2026-05-05 09:22 | -35.13128 | 139.10114 | 12152 ft | 348 kts | 338° |
| 2026-05-05 09:22 | -35.10855 | 139.09070 | 11377 ft | 353 kts | 338° |
| 2026-05-05 09:22 | -35.08550 | 139.08000 | 10775 ft | 352 kts | 336° |
| 2026-05-05 09:22 | -35.06437 | 139.06562 | 10381 ft | 342 kts | 322° |
| 2026-05-05 09:23 | -35.04688 | 139.04698 | 10253 ft | 328 kts | 316° |
| 2026-05-05 09:23 | -35.03037 | 139.02843 | 10125 ft | 317 kts | 316° |
| 2026-05-05 09:23 | -35.01440 | 139.01056 | 10000 ft | 306 kts | 316° |
| 2026-05-05 09:23 | -34.99907 | 138.99341 | 9632 ft | 294 kts | 316° |
| 2026-05-05 09:24 | -34.98401 | 138.97653 | 9286 ft | 293 kts | 316° |
| 2026-05-05 09:24 | -34.96902 | 138.95977 | 8970 ft | 291 kts | 316° |
| 2026-05-05 09:24 | -34.95407 | 138.94317 | 8641 ft | 290 kts | 316° |
| 2026-05-05 09:24 | -34.93907 | 138.92645 | 8209 ft | 292 kts | 316° |
| 2026-05-05 09:25 | -34.92426 | 138.90989 | 7832 ft | 287 kts | 316° |
| 2026-05-05 09:25 | -34.90961 | 138.89351 | 7229 ft | 285 kts | 316° |
| 2026-05-05 09:25 | -34.89512 | 138.87734 | 6823 ft | 276 kts | 316° |
| 2026-05-05 09:25 | -34.88141 | 138.86204 | 6588 ft | 261 kts | 316° |
| 2026-05-05 09:26 | -34.86817 | 138.84724 | 6287 ft | 255 kts | 315° |
| 2026-05-05 09:26 | -34.85548 | 138.83303 | 6109 ft | 249 kts | 316° |
| 2026-05-05 09:26 | -34.84279 | 138.81892 | 5783 ft | 242 kts | 316° |
| 2026-05-05 09:26 | -34.83057 | 138.80535 | 5465 ft | 234 kts | 315° |
| 2026-05-05 09:27 | -34.81903 | 138.79188 | 5152 ft | 225 kts | 307° |
| 2026-05-05 09:27 | -34.81105 | 138.77579 | 4627 ft | 224 kts | 288° |
| 2026-05-05 09:27 | -34.80806 | 138.75742 | 4241 ft | 218 kts | 269° |
| 2026-05-05 09:27 | -34.81009 | 138.73979 | 4001 ft | 206 kts | 251° |
| 2026-05-05 09:28 | -34.81610 | 138.72444 | 3790 ft | 196 kts | 235° |
| 2026-05-05 09:28 | -34.82434 | 138.71196 | 3537 ft | 185 kts | 230° |
| 2026-05-05 09:28 | -34.83250 | 138.70017 | 3286 ft | 180 kts | 229° |
| 2026-05-05 09:28 | -34.84047 | 138.68864 | 3048 ft | 175 kts | 230° |
| 2026-05-05 09:29 | -34.84825 | 138.67737 | 2820 ft | 173 kts | 229° |
| 2026-05-05 09:29 | -34.85597 | 138.66618 | 2582 ft | 172 kts | 229° |
| 2026-05-05 09:29 | -34.86367 | 138.65502 | 2363 ft | 173 kts | 229° |
| 2026-05-05 09:29 | -34.87142 | 138.64377 | 2133 ft | 173 kts | 229° |
| 2026-05-05 09:30 | -34.87910 | 138.63264 | 1904 ft | 167 kts | 229° |
| 2026-05-05 09:30 | -34.88631 | 138.62217 | 1687 ft | 156 kts | 229° |
| 2026-05-05 09:30 | -34.89308 | 138.61235 | 1496 ft | 148 kts | 229° |
| 2026-05-05 09:30 | -34.89965 | 138.60282 | 1296 ft | 146 kts | 229° |
| 2026-05-05 09:31 | -34.90616 | 138.59334 | 1088 ft | 145 kts | 229° |
| 2026-05-05 09:31 | -34.91256 | 138.58404 | 894 ft | 145 kts | 230° |
| 2026-05-05 09:31 | -34.91902 | 138.57467 | 715 ft | 144 kts | 231° |
| 2026-05-05 09:31 | -34.92544 | 138.56536 | 528 ft | 143 kts | 231° |
| 2026-05-05 09:32 | -34.93179 | 138.55613 | 329 ft | 142 kts | 231° |
| 2026-05-05 09:32 | -34.93813 | 138.54688 | 152 ft | 142 kts | 231° |
| 2026-05-05 09:32 | -34.94437 | 138.53779 | 28 ft | 131 kts | 230° |
| 2026-05-05 09:32 | -34.94939 | 138.53049 | 24 ft | 94 kts | 231° |
| 2026-05-05 09:33 | -34.95259 | 138.52572 | 22 ft | 58 kts | 231° |
| 2026-05-05 09:33 | -34.95428 | 138.52328 | 24 ft | 18 kts | 238° |
| 2026-05-05 09:33 | -34.95380 | 138.52206 | 20 ft | 19 kts | 327° |
| 2026-05-05 09:33 | -34.95261 | 138.52236 | 20 ft | 20 kts | 40° |
| 2026-05-05 09:34 | -34.95146 | 138.52345 | 21 ft | 22 kts | 34° |
| 2026-05-05 09:34 | -34.95021 | 138.52462 | 23 ft | 23 kts | 40° |
| 2026-05-05 09:34 | -34.94890 | 138.52587 | 20 ft | 24 kts | 39° |
| 2026-05-05 09:34 | -34.94756 | 138.52717 | 20 ft | 26 kts | 34° |
| 2026-05-05 09:35 | -34.94627 | 138.52835 | 22 ft | 22 kts | 36° |
| 2026-05-05 09:35 | -34.94443 | 138.53031 | 23 ft | 12 kts | 69° |
| 2026-05-05 09:35 | -34.94462 | 138.53129 | 25 ft | 13 kts | 122° |
| 2026-05-05 09:36 | -34.94513 | 138.53231 | 23 ft | 16 kts | 112° |
| 2026-05-05 09:36 | -34.94490 | 138.53365 | 24 ft | 18 kts | 54° |
| 2026-05-05 09:36 | -34.94415 | 138.53477 | 24 ft | 17 kts | 50° |
| 2026-05-05 09:36 | -34.94331 | 138.53597 | 25 ft | 20 kts | 47° |
| 2026-05-05 09:37 | -34.94270 | 138.53664 | 26 ft | 10 kts | 10° |
| 2026-05-05 09:37 | -34.94203 | 138.53637 | 28 ft | 11 kts | 2° |
| 2026-05-05 09:37 | -34.94145 | 138.53700 | 28 ft | 12 kts | 51° |
| 2026-05-05 09:37 | -34.94086 | 138.53790 | 27 ft | 15 kts | 51° |
| 2026-05-05 09:38 | -34.94021 | 138.53881 | 28 ft | 11 kts | 51° |
| 2026-05-05 09:38 | -34.93986 | 138.53885 | 30 ft | 5 kts | 327° |
| 2026-05-05 09:38 | -34.93961 | 138.53855 | 27 ft | 5 kts | 315° |
| 2026-05-05 09:38 | -34.93935 | 138.53828 | 27 ft | 3 kts | 320° |
| 2026-05-05 09:39 | -34.93928 | 138.53821 | 27 ft | 0 kts | 320° |